sensor_id;sensor_type;location;lat;lon;timestamp;P1;durP1;ratioP1;P2;durP2;ratioP2
76208;SDS011;64990;51.698;-0.292;2024-02-21T00:00:38;21.15;;;3.20;;
76208;SDS011;64990;51.698;-0.292;2024-02-21T00:03:05;34.40;;;4.90;;
76208;SDS011;64990;51.698;-0.292;2024-02-21T00:05:31;22.65;;;3.97;;
76208;SDS011;64990;51.698;-0.292;2024-02-21T00:07:58;20.55;;;4.25;;
76208;SDS011;64990;51.698;-0.292;2024-02-21T00:10:24;18.08;;;3.22;;
76208;SDS011;64990;51.698;-0.292;2024-02-21T00:12:51;33.90;;;5.55;;
76208;SDS011;64990;51.698;-0.292;2024-02-21T00:15:17;16.05;;;4.13;;
76208;SDS011;64990;51.698;-0.292;2024-02-21T00:17:43;22.65;;;4.15;;
76208;SDS011;64990;51.698;-0.292;2024-02-21T00:20:09;13.40;;;3.70;;
76208;SDS011;64990;51.698;-0.292;2024-02-21T00:22:36;15.40;;;4.97;;
76208;SDS011;64990;51.698;-0.292;2024-02-21T00:25:02;27.92;;;6.32;;
76208;SDS011;64990;51.698;-0.292;2024-02-21T00:27:28;25.20;;;4.75;;
76208;SDS011;64990;51.698;-0.292;2024-02-21T00:29:55;33.17;;;6.38;;
76208;SDS011;64990;51.698;-0.292;2024-02-21T00:32:21;20.10;;;4.28;;
76208;SDS011;64990;51.698;-0.292;2024-02-21T00:34:47;14.07;;;2.53;;
76208;SDS011;64990;51.698;-0.292;2024-02-21T00:37:13;18.83;;;3.33;;
76208;SDS011;64990;51.698;-0.292;2024-02-21T00:39:39;14.00;;;3.92;;
76208;SDS011;64990;51.698;-0.292;2024-02-21T00:42:05;43.10;;;6.75;;
76208;SDS011;64990;51.698;-0.292;2024-02-21T00:44:32;23.38;;;4.22;;
76208;SDS011;64990;51.698;-0.292;2024-02-21T00:46:58;14.95;;;3.28;;
76208;SDS011;64990;51.698;-0.292;2024-02-21T00:49:24;24.02;;;5.25;;
76208;SDS011;64990;51.698;-0.292;2024-02-21T00:51:50;27.95;;;4.55;;
76208;SDS011;64990;51.698;-0.292;2024-02-21T00:54:16;17.77;;;3.95;;
76208;SDS011;64990;51.698;-0.292;2024-02-21T00:56:42;21.75;;;3.88;;
76208;SDS011;64990;51.698;-0.292;2024-02-21T00:59:08;16.67;;;4.25;;
76208;SDS011;64990;51.698;-0.292;2024-02-21T01:01:34;30.02;;;5.95;;
76208;SDS011;64990;51.698;-0.292;2024-02-21T01:04:00;33.33;;;4.28;;
76208;SDS011;64990;51.698;-0.292;2024-02-21T01:06:26;25.98;;;5.57;;
76208;SDS011;64990;51.698;-0.292;2024-02-21T01:08:52;25.38;;;3.58;;
76208;SDS011;64990;51.698;-0.292;2024-02-21T01:11:18;31.15;;;4.65;;
76208;SDS011;64990;51.698;-0.292;2024-02-21T01:13:44;17.85;;;3.63;;
76208;SDS011;64990;51.698;-0.292;2024-02-21T01:16:10;20.17;;;3.78;;
76208;SDS011;64990;51.698;-0.292;2024-02-21T01:18:37;15.15;;;3.97;;
76208;SDS011;64990;51.698;-0.292;2024-02-21T01:21:04;20.30;;;4.47;;
76208;SDS011;64990;51.698;-0.292;2024-02-21T01:23:35;41.08;;;6.30;;
76208;SDS011;64990;51.698;-0.292;2024-02-21T01:26:01;29.63;;;4.60;;
76208;SDS011;64990;51.698;-0.292;2024-02-21T01:28:27;23.15;;;3.88;;
76208;SDS011;64990;51.698;-0.292;2024-02-21T01:30:53;24.00;;;3.63;;
76208;SDS011;64990;51.698;-0.292;2024-02-21T01:33:19;25.65;;;5.28;;
76208;SDS011;64990;51.698;-0.292;2024-02-21T01:35:45;12.35;;;3.22;;
76208;SDS011;64990;51.698;-0.292;2024-02-21T01:38:12;22.50;;;5.68;;
76208;SDS011;64990;51.698;-0.292;2024-02-21T01:40:38;25.38;;;4.53;;
76208;SDS011;64990;51.698;-0.292;2024-02-21T01:43:14;28.00;;;3.75;;
76208;SDS011;64990;51.698;-0.292;2024-02-21T01:45:40;14.55;;;3.40;;
76208;SDS011;64990;51.698;-0.292;2024-02-21T01:48:06;37.55;;;9.07;;
76208;SDS011;64990;51.698;-0.292;2024-02-21T01:50:32;15.20;;;3.33;;
76208;SDS011;64990;51.698;-0.292;2024-02-21T01:52:59;19.65;;;3.67;;
76208;SDS011;64990;51.698;-0.292;2024-02-21T01:55:25;24.08;;;4.60;;
76208;SDS011;64990;51.698;-0.292;2024-02-21T01:57:51;33.15;;;5.57;;
76208;SDS011;64990;51.698;-0.292;2024-02-21T02:00:17;9.50;;;3.08;;
76208;SDS011;64990;51.698;-0.292;2024-02-21T02:02:44;15.95;;;4.13;;
76208;SDS011;64990;51.698;-0.292;2024-02-21T02:05:11;28.30;;;5.28;;
76208;SDS011;64990;51.698;-0.292;2024-02-21T02:07:37;32.53;;;4.20;;
76208;SDS011;64990;51.698;-0.292;2024-02-21T02:10:03;27.80;;;7.13;;
76208;SDS011;64990;51.698;-0.292;2024-02-21T02:12:29;17.02;;;3.65;;
76208;SDS011;64990;51.698;-0.292;2024-02-21T02:15:02;16.27;;;5.32;;
76208;SDS011;64990;51.698;-0.292;2024-02-21T02:17:32;20.95;;;4.55;;
76208;SDS011;64990;51.698;-0.292;2024-02-21T02:19:58;22.00;;;3.80;;
76208;SDS011;64990;51.698;-0.292;2024-02-21T02:22:27;20.33;;;3.90;;
76208;SDS011;64990;51.698;-0.292;2024-02-21T02:24:54;10.45;;;2.42;;
76208;SDS011;64990;51.698;-0.292;2024-02-21T02:27:20;26.77;;;4.13;;
76208;SDS011;64990;51.698;-0.292;2024-02-21T02:29:48;23.27;;;3.05;;
76208;SDS011;64990;51.698;-0.292;2024-02-21T02:32:14;25.42;;;5.45;;
76208;SDS011;64990;51.698;-0.292;2024-02-21T02:34:40;28.73;;;3.60;;
76208;SDS011;64990;51.698;-0.292;2024-02-21T02:37:06;30.15;;;4.93;;
76208;SDS011;64990;51.698;-0.292;2024-02-21T02:39:32;30.92;;;3.50;;
76208;SDS011;64990;51.698;-0.292;2024-02-21T02:41:58;28.50;;;4.40;;
76208;SDS011;64990;51.698;-0.292;2024-02-21T02:44:24;23.42;;;4.63;;
76208;SDS011;64990;51.698;-0.292;2024-02-21T02:46:50;14.70;;;3.40;;
76208;SDS011;64990;51.698;-0.292;2024-02-21T02:49:16;22.17;;;3.63;;
76208;SDS011;64990;51.698;-0.292;2024-02-21T02:51:43;17.83;;;4.50;;
76208;SDS011;64990;51.698;-0.292;2024-02-21T02:54:09;31.65;;;4.32;;
76208;SDS011;64990;51.698;-0.292;2024-02-21T02:56:35;22.08;;;3.50;;
76208;SDS011;64990;51.698;-0.292;2024-02-21T02:59:01;21.13;;;4.20;;
76208;SDS011;64990;51.698;-0.292;2024-02-21T03:01:28;16.08;;;3.72;;
76208;SDS011;64990;51.698;-0.292;2024-02-21T03:03:54;31.30;;;4.82;;
76208;SDS011;64990;51.698;-0.292;2024-02-21T03:06:20;13.65;;;2.70;;
76208;SDS011;64990;51.698;-0.292;2024-02-21T03:08:46;18.98;;;4.38;;
76208;SDS011;64990;51.698;-0.292;2024-02-21T03:11:12;21.55;;;6.03;;
76208;SDS011;64990;51.698;-0.292;2024-02-21T03:13:38;31.05;;;5.10;;
76208;SDS011;64990;51.698;-0.292;2024-02-21T03:16:04;30.42;;;5.63;;
76208;SDS011;64990;51.698;-0.292;2024-02-21T03:18:30;30.25;;;2.90;;
76208;SDS011;64990;51.698;-0.292;2024-02-21T03:20:56;27.20;;;4.07;;
76208;SDS011;64990;51.698;-0.292;2024-02-21T03:23:22;13.45;;;3.65;;
76208;SDS011;64990;51.698;-0.292;2024-02-21T03:25:48;23.60;;;6.07;;
76208;SDS011;64990;51.698;-0.292;2024-02-21T03:28:15;30.27;;;4.60;;
76208;SDS011;64990;51.698;-0.292;2024-02-21T03:30:41;17.65;;;5.28;;
76208;SDS011;64990;51.698;-0.292;2024-02-21T03:33:07;24.92;;;5.18;;
76208;SDS011;64990;51.698;-0.292;2024-02-21T03:35:33;20.88;;;4.93;;
76208;SDS011;64990;51.698;-0.292;2024-02-21T03:37:59;30.38;;;5.75;;
76208;SDS011;64990;51.698;-0.292;2024-02-21T03:40:25;23.95;;;4.03;;
76208;SDS011;64990;51.698;-0.292;2024-02-21T03:42:51;16.23;;;3.33;;
76208;SDS011;64990;51.698;-0.292;2024-02-21T03:45:17;15.30;;;3.67;;
76208;SDS011;64990;51.698;-0.292;2024-02-21T03:47:43;17.48;;;4.18;;
76208;SDS011;64990;51.698;-0.292;2024-02-21T03:50:09;10.48;;;4.57;;
76208;SDS011;64990;51.698;-0.292;2024-02-21T03:52:35;21.38;;;6.07;;
76208;SDS011;64990;51.698;-0.292;2024-02-21T03:55:02;14.88;;;3.75;;
76208;SDS011;64990;51.698;-0.292;2024-02-21T03:57:29;16.17;;;4.07;;
76208;SDS011;64990;51.698;-0.292;2024-02-21T03:59:55;17.30;;;5.65;;
76208;SDS011;64990;51.698;-0.292;2024-02-21T04:02:21;25.67;;;6.20;;
76208;SDS011;64990;51.698;-0.292;2024-02-21T04:04:47;19.60;;;3.88;;
76208;SDS011;64990;51.698;-0.292;2024-02-21T04:07:14;23.33;;;4.03;;
76208;SDS011;64990;51.698;-0.292;2024-02-21T04:09:40;18.80;;;4.57;;
76208;SDS011;64990;51.698;-0.292;2024-02-21T04:12:07;30.38;;;5.97;;
76208;SDS011;64990;51.698;-0.292;2024-02-21T04:14:34;23.63;;;3.78;;
76208;SDS011;64990;51.698;-0.292;2024-02-21T04:17:00;11.82;;;3.22;;
76208;SDS011;64990;51.698;-0.292;2024-02-21T04:19:27;13.43;;;4.20;;
76208;SDS011;64990;51.698;-0.292;2024-02-21T04:21:53;19.05;;;5.20;;
76208;SDS011;64990;51.698;-0.292;2024-02-21T04:24:19;19.00;;;3.17;;
76208;SDS011;64990;51.698;-0.292;2024-02-21T04:26:45;22.10;;;4.75;;
76208;SDS011;64990;51.698;-0.292;2024-02-21T04:29:11;30.45;;;5.20;;
76208;SDS011;64990;51.698;-0.292;2024-02-21T04:31:37;31.10;;;6.32;;
76208;SDS011;64990;51.698;-0.292;2024-02-21T04:34:03;24.45;;;4.00;;
76208;SDS011;64990;51.698;-0.292;2024-02-21T04:36:30;19.60;;;3.53;;
76208;SDS011;64990;51.698;-0.292;2024-02-21T04:38:56;25.05;;;5.05;;
76208;SDS011;64990;51.698;-0.292;2024-02-21T04:41:22;18.08;;;5.55;;
76208;SDS011;64990;51.698;-0.292;2024-02-21T04:43:48;27.98;;;4.15;;
76208;SDS011;64990;51.698;-0.292;2024-02-21T04:46:14;17.23;;;3.50;;
76208;SDS011;64990;51.698;-0.292;2024-02-21T04:48:40;15.27;;;3.97;;
76208;SDS011;64990;51.698;-0.292;2024-02-21T04:51:06;6.28;;;2.60;;
76208;SDS011;64990;51.698;-0.292;2024-02-21T04:53:33;26.65;;;3.35;;
76208;SDS011;64990;51.698;-0.292;2024-02-21T04:55:59;17.15;;;3.65;;
76208;SDS011;64990;51.698;-0.292;2024-02-21T04:58:25;24.83;;;4.07;;
76208;SDS011;64990;51.698;-0.292;2024-02-21T05:00:51;13.95;;;2.13;;
76208;SDS011;64990;51.698;-0.292;2024-02-21T05:03:18;35.35;;;6.38;;
76208;SDS011;64990;51.698;-0.292;2024-02-21T05:05:44;11.05;;;3.33;;
76208;SDS011;64990;51.698;-0.292;2024-02-21T05:08:10;8.73;;;3.25;;
76208;SDS011;64990;51.698;-0.292;2024-02-21T05:10:36;12.52;;;3.95;;
76208;SDS011;64990;51.698;-0.292;2024-02-21T05:13:02;20.27;;;4.97;;
76208;SDS011;64990;51.698;-0.292;2024-02-21T05:15:29;21.30;;;2.75;;
76208;SDS011;64990;51.698;-0.292;2024-02-21T05:17:56;22.67;;;3.55;;
76208;SDS011;64990;51.698;-0.292;2024-02-21T05:20:22;16.30;;;2.80;;
76208;SDS011;64990;51.698;-0.292;2024-02-21T05:22:48;19.45;;;3.53;;
76208;SDS011;64990;51.698;-0.292;2024-02-21T05:25:14;19.10;;;3.25;;
76208;SDS011;64990;51.698;-0.292;2024-02-21T05:27:40;16.15;;;3.72;;
76208;SDS011;64990;51.698;-0.292;2024-02-21T05:30:06;13.32;;;3.45;;
76208;SDS011;64990;51.698;-0.292;2024-02-21T05:32:33;44.42;;;4.80;;
76208;SDS011;64990;51.698;-0.292;2024-02-21T05:34:58;11.98;;;2.88;;
76208;SDS011;64990;51.698;-0.292;2024-02-21T05:37:24;13.40;;;3.10;;
76208;SDS011;64990;51.698;-0.292;2024-02-21T05:39:51;19.10;;;3.55;;
76208;SDS011;64990;51.698;-0.292;2024-02-21T05:42:17;15.52;;;3.75;;
76208;SDS011;64990;51.698;-0.292;2024-02-21T05:44:43;17.88;;;4.05;;
76208;SDS011;64990;51.698;-0.292;2024-02-21T05:47:09;9.57;;;2.60;;
76208;SDS011;64990;51.698;-0.292;2024-02-21T05:49:37;28.88;;;4.55;;
76208;SDS011;64990;51.698;-0.292;2024-02-21T05:52:03;13.02;;;3.05;;
76208;SDS011;64990;51.698;-0.292;2024-02-21T05:54:30;14.40;;;3.92;;
76208;SDS011;64990;51.698;-0.292;2024-02-21T05:56:57;15.00;;;2.70;;
76208;SDS011;64990;51.698;-0.292;2024-02-21T05:59:23;12.32;;;2.95;;
76208;SDS011;64990;51.698;-0.292;2024-02-21T06:01:56;14.93;;;3.30;;
76208;SDS011;64990;51.698;-0.292;2024-02-21T06:04:22;14.02;;;2.95;;
76208;SDS011;64990;51.698;-0.292;2024-02-21T06:06:48;10.07;;;2.35;;
76208;SDS011;64990;51.698;-0.292;2024-02-21T06:09:14;13.10;;;2.42;;
76208;SDS011;64990;51.698;-0.292;2024-02-21T06:11:40;11.93;;;2.53;;
76208;SDS011;64990;51.698;-0.292;2024-02-21T06:14:07;18.55;;;2.58;;
76208;SDS011;64990;51.698;-0.292;2024-02-21T06:16:33;17.13;;;2.42;;
76208;SDS011;64990;51.698;-0.292;2024-02-21T06:18:59;16.85;;;2.85;;
76208;SDS011;64990;51.698;-0.292;2024-02-21T06:21:28;11.40;;;2.60;;
76208;SDS011;64990;51.698;-0.292;2024-02-21T06:23:54;31.55;;;4.95;;
76208;SDS011;64990;51.698;-0.292;2024-02-21T06:26:20;18.48;;;2.08;;
76208;SDS011;64990;51.698;-0.292;2024-02-21T06:28:46;10.82;;;3.05;;
76208;SDS011;64990;51.698;-0.292;2024-02-21T06:31:12;16.80;;;3.08;;
76208;SDS011;64990;51.698;-0.292;2024-02-21T06:33:40;20.50;;;2.72;;
76208;SDS011;64990;51.698;-0.292;2024-02-21T06:36:06;14.27;;;3.03;;
76208;SDS011;64990;51.698;-0.292;2024-02-21T06:38:32;8.23;;;2.50;;
76208;SDS011;64990;51.698;-0.292;2024-02-21T06:40:59;11.23;;;2.47;;
76208;SDS011;64990;51.698;-0.292;2024-02-21T06:43:27;8.60;;;2.67;;
76208;SDS011;64990;51.698;-0.292;2024-02-21T06:45:53;27.52;;;3.45;;
76208;SDS011;64990;51.698;-0.292;2024-02-21T06:48:21;12.48;;;3.97;;
76208;SDS011;64990;51.698;-0.292;2024-02-21T06:50:47;18.23;;;3.97;;
76208;SDS011;64990;51.698;-0.292;2024-02-21T06:53:13;18.38;;;3.22;;
76208;SDS011;64990;51.698;-0.292;2024-02-21T06:55:39;9.43;;;1.98;;
76208;SDS011;64990;51.698;-0.292;2024-02-21T06:58:05;14.73;;;2.38;;
76208;SDS011;64990;51.698;-0.292;2024-02-21T07:00:36;13.68;;;2.53;;
76208;SDS011;64990;51.698;-0.292;2024-02-21T07:03:02;15.70;;;3.25;;
76208;SDS011;64990;51.698;-0.292;2024-02-21T07:05:28;3.70;;;1.80;;
76208;SDS011;64990;51.698;-0.292;2024-02-21T07:07:54;14.10;;;3.00;;
76208;SDS011;64990;51.698;-0.292;2024-02-21T07:10:20;11.98;;;2.75;;
76208;SDS011;64990;51.698;-0.292;2024-02-21T07:12:46;10.57;;;1.83;;
76208;SDS011;64990;51.698;-0.292;2024-02-21T07:15:13;14.40;;;2.50;;
76208;SDS011;64990;51.698;-0.292;2024-02-21T07:17:39;12.23;;;2.05;;
76208;SDS011;64990;51.698;-0.292;2024-02-21T07:20:05;7.57;;;2.20;;
76208;SDS011;64990;51.698;-0.292;2024-02-21T07:22:32;9.63;;;2.28;;
76208;SDS011;64990;51.698;-0.292;2024-02-21T07:24:57;5.03;;;1.50;;
76208;SDS011;64990;51.698;-0.292;2024-02-21T07:27:23;10.38;;;2.67;;
76208;SDS011;64990;51.698;-0.292;2024-02-21T07:29:53;8.45;;;1.55;;
76208;SDS011;64990;51.698;-0.292;2024-02-21T07:32:19;3.25;;;1.85;;
76208;SDS011;64990;51.698;-0.292;2024-02-21T07:34:45;6.85;;;2.22;;
76208;SDS011;64990;51.698;-0.292;2024-02-21T07:37:11;20.17;;;3.67;;
76208;SDS011;64990;51.698;-0.292;2024-02-21T07:39:37;9.80;;;3.17;;
76208;SDS011;64990;51.698;-0.292;2024-02-21T07:42:03;10.05;;;2.20;;
76208;SDS011;64990;51.698;-0.292;2024-02-21T07:44:29;3.83;;;1.48;;
76208;SDS011;64990;51.698;-0.292;2024-02-21T07:46:56;2.97;;;1.70;;
76208;SDS011;64990;51.698;-0.292;2024-02-21T07:49:22;6.30;;;1.63;;
76208;SDS011;64990;51.698;-0.292;2024-02-21T07:51:48;8.73;;;1.83;;
76208;SDS011;64990;51.698;-0.292;2024-02-21T07:54:14;3.95;;;1.48;;
76208;SDS011;64990;51.698;-0.292;2024-02-21T07:56:40;10.20;;;3.10;;
76208;SDS011;64990;51.698;-0.292;2024-02-21T07:59:06;5.70;;;1.63;;
76208;SDS011;64990;51.698;-0.292;2024-02-21T08:01:33;5.95;;;1.80;;
76208;SDS011;64990;51.698;-0.292;2024-02-21T08:03:59;2.95;;;2.63;;
76208;SDS011;64990;51.698;-0.292;2024-02-21T08:06:25;7.28;;;2.20;;
76208;SDS011;64990;51.698;-0.292;2024-02-21T08:08:51;2.22;;;1.58;;
76208;SDS011;64990;51.698;-0.292;2024-02-21T08:11:17;8.48;;;1.98;;
76208;SDS011;64990;51.698;-0.292;2024-02-21T08:13:43;10.70;;;2.08;;
76208;SDS011;64990;51.698;-0.292;2024-02-21T08:16:09;9.20;;;2.15;;
76208;SDS011;64990;51.698;-0.292;2024-02-21T08:18:35;7.85;;;1.67;;
76208;SDS011;64990;51.698;-0.292;2024-02-21T08:21:03;8.52;;;2.28;;
76208;SDS011;64990;51.698;-0.292;2024-02-21T08:23:29;6.15;;;2.95;;
76208;SDS011;64990;51.698;-0.292;2024-02-21T08:25:55;6.78;;;3.03;;
76208;SDS011;64990;51.698;-0.292;2024-02-21T08:28:21;11.65;;;2.85;;
76208;SDS011;64990;51.698;-0.292;2024-02-21T08:30:47;9.05;;;2.22;;
76208;SDS011;64990;51.698;-0.292;2024-02-21T08:33:14;3.08;;;1.80;;
76208;SDS011;64990;51.698;-0.292;2024-02-21T08:35:41;4.20;;;1.70;;
76208;SDS011;64990;51.698;-0.292;2024-02-21T08:38:07;6.70;;;1.45;;
76208;SDS011;64990;51.698;-0.292;2024-02-21T08:40:33;9.13;;;1.88;;
76208;SDS011;64990;51.698;-0.292;2024-02-21T08:43:00;9.18;;;1.60;;
76208;SDS011;64990;51.698;-0.292;2024-02-21T08:45:26;15.27;;;2.95;;
76208;SDS011;64990;51.698;-0.292;2024-02-21T08:47:52;6.53;;;2.42;;
76208;SDS011;64990;51.698;-0.292;2024-02-21T08:50:18;13.30;;;4.68;;
76208;SDS011;64990;51.698;-0.292;2024-02-21T08:52:44;7.18;;;1.80;;
76208;SDS011;64990;51.698;-0.292;2024-02-21T08:55:10;10.50;;;3.13;;
76208;SDS011;64990;51.698;-0.292;2024-02-21T08:57:36;18.75;;;3.40;;
76208;SDS011;64990;51.698;-0.292;2024-02-21T09:00:05;13.45;;;3.67;;
76208;SDS011;64990;51.698;-0.292;2024-02-21T09:02:35;4.10;;;1.88;;
76208;SDS011;64990;51.698;-0.292;2024-02-21T09:05:02;17.42;;;2.75;;
76208;SDS011;64990;51.698;-0.292;2024-02-21T09:07:30;4.45;;;1.40;;
76208;SDS011;64990;51.698;-0.292;2024-02-21T09:09:56;9.32;;;3.42;;
76208;SDS011;64990;51.698;-0.292;2024-02-21T09:12:22;14.93;;;3.78;;
76208;SDS011;64990;51.698;-0.292;2024-02-21T09:14:48;9.75;;;3.35;;
76208;SDS011;64990;51.698;-0.292;2024-02-21T09:17:15;10.13;;;1.92;;
76208;SDS011;64990;51.698;-0.292;2024-02-21T09:19:45;5.65;;;2.05;;
76208;SDS011;64990;51.698;-0.292;2024-02-21T09:22:12;4.25;;;1.20;;
76208;SDS011;64990;51.698;-0.292;2024-02-21T09:24:38;4.15;;;1.67;;
76208;SDS011;64990;51.698;-0.292;2024-02-21T09:27:04;5.28;;;2.25;;
76208;SDS011;64990;51.698;-0.292;2024-02-21T09:29:31;6.15;;;1.52;;
76208;SDS011;64990;51.698;-0.292;2024-02-21T09:31:58;2.65;;;1.90;;
76208;SDS011;64990;51.698;-0.292;2024-02-21T09:34:24;6.57;;;1.88;;
76208;SDS011;64990;51.698;-0.292;2024-02-21T09:36:50;9.40;;;1.73;;
76208;SDS011;64990;51.698;-0.292;2024-02-21T09:39:16;1.60;;;1.00;;
76208;SDS011;64990;51.698;-0.292;2024-02-21T09:41:45;5.38;;;1.13;;
76208;SDS011;64990;51.698;-0.292;2024-02-21T09:44:12;8.40;;;1.63;;
76208;SDS011;64990;51.698;-0.292;2024-02-21T09:49:20;5.25;;;1.50;;
76208;SDS011;64990;51.698;-0.292;2024-02-21T09:51:49;5.30;;;1.77;;
76208;SDS011;64990;51.698;-0.292;2024-02-21T09:54:17;9.35;;;2.50;;
76208;SDS011;64990;51.698;-0.292;2024-02-21T09:56:45;3.15;;;1.27;;
76208;SDS011;64990;51.698;-0.292;2024-02-21T09:59:12;16.70;;;1.83;;
76208;SDS011;64990;51.698;-0.292;2024-02-21T10:01:38;7.68;;;1.92;;
76208;SDS011;64990;51.698;-0.292;2024-02-21T10:04:04;11.40;;;2.08;;
76208;SDS011;64990;51.698;-0.292;2024-02-21T10:06:31;7.57;;;1.75;;
76208;SDS011;64990;51.698;-0.292;2024-02-21T10:08:58;5.18;;;2.30;;
76208;SDS011;64990;51.698;-0.292;2024-02-21T10:11:24;3.00;;;1.75;;
76208;SDS011;64990;51.698;-0.292;2024-02-21T10:13:51;4.05;;;1.23;;
76208;SDS011;64990;51.698;-0.292;2024-02-21T10:16:17;18.27;;;2.83;;
76208;SDS011;64990;51.698;-0.292;2024-02-21T10:18:43;7.45;;;1.75;;
76208;SDS011;64990;51.698;-0.292;2024-02-21T10:21:09;1.48;;;1.27;;
76208;SDS011;64990;51.698;-0.292;2024-02-21T10:23:48;6.03;;;1.20;;
76208;SDS011;64990;51.698;-0.292;2024-02-21T10:26:14;7.80;;;1.98;;
76208;SDS011;64990;51.698;-0.292;2024-02-21T10:28:41;2.42;;;1.08;;
76208;SDS011;64990;51.698;-0.292;2024-02-21T10:31:07;8.05;;;2.20;;
76208;SDS011;64990;51.698;-0.292;2024-02-21T10:33:34;1.23;;;0.77;;
76208;SDS011;64990;51.698;-0.292;2024-02-21T10:36:07;6.60;;;1.45;;
76208;SDS011;64990;51.698;-0.292;2024-02-21T10:38:34;9.93;;;1.15;;
76208;SDS011;64990;51.698;-0.292;2024-02-21T10:41:00;2.03;;;1.02;;
76208;SDS011;64990;51.698;-0.292;2024-02-21T10:43:28;16.58;;;3.03;;
76208;SDS011;64990;51.698;-0.292;2024-02-21T10:45:56;2.13;;;1.13;;
76208;SDS011;64990;51.698;-0.292;2024-02-21T10:48:25;3.25;;;2.10;;
76208;SDS011;64990;51.698;-0.292;2024-02-21T10:51:01;6.68;;;2.08;;
76208;SDS011;64990;51.698;-0.292;2024-02-21T10:56:39;8.63;;;2.67;;
76208;SDS011;64990;51.698;-0.292;2024-02-21T10:58:46;3.80;;;1.80;;
76208;SDS011;64990;51.698;-0.292;2024-02-21T11:01:13;6.72;;;1.83;;
76208;SDS011;64990;51.698;-0.292;2024-02-21T11:03:44;2.22;;;1.02;;
76208;SDS011;64990;51.698;-0.292;2024-02-21T11:06:11;8.75;;;2.47;;
76208;SDS011;64990;51.698;-0.292;2024-02-21T11:08:38;2.88;;;0.90;;
76208;SDS011;64990;51.698;-0.292;2024-02-21T11:11:04;5.07;;;1.17;;
76208;SDS011;64990;51.698;-0.292;2024-02-21T11:13:40;3.72;;;0.80;;
76208;SDS011;64990;51.698;-0.292;2024-02-21T11:16:07;8.18;;;1.88;;
76208;SDS011;64990;51.698;-0.292;2024-02-21T11:18:34;3.60;;;1.23;;
76208;SDS011;64990;51.698;-0.292;2024-02-21T11:21:00;4.40;;;1.27;;
76208;SDS011;64990;51.698;-0.292;2024-02-21T11:23:26;7.60;;;1.30;;
76208;SDS011;64990;51.698;-0.292;2024-02-21T11:26:03;4.00;;;1.02;;
76208;SDS011;64990;51.698;-0.292;2024-02-21T11:28:29;1.58;;;1.23;;
76208;SDS011;64990;51.698;-0.292;2024-02-21T11:31:04;10.60;;;2.33;;
76208;SDS011;64990;51.698;-0.292;2024-02-21T11:33:32;1.52;;;1.02;;
76208;SDS011;64990;51.698;-0.292;2024-02-21T11:35:58;2.58;;;0.93;;
76208;SDS011;64990;51.698;-0.292;2024-02-21T11:38:24;5.82;;;1.30;;
76208;SDS011;64990;51.698;-0.292;2024-02-21T11:40:51;7.18;;;1.25;;
76208;SDS011;64990;51.698;-0.292;2024-02-21T11:43:16;1.27;;;0.88;;
76208;SDS011;64990;51.698;-0.292;2024-02-21T11:45:42;1.58;;;1.02;;
76208;SDS011;64990;51.698;-0.292;2024-02-21T11:48:08;2.42;;;1.00;;
76208;SDS011;64990;51.698;-0.292;2024-02-21T11:50:35;4.65;;;1.20;;
76208;SDS011;64990;51.698;-0.292;2024-02-21T11:53:01;3.40;;;1.30;;
76208;SDS011;64990;51.698;-0.292;2024-02-21T11:55:28;8.90;;;0.80;;
76208;SDS011;64990;51.698;-0.292;2024-02-21T11:57:54;5.30;;;1.55;;
76208;SDS011;64990;51.698;-0.292;2024-02-21T12:00:20;6.55;;;1.17;;
76208;SDS011;64990;51.698;-0.292;2024-02-21T12:02:46;1.55;;;0.88;;
76208;SDS011;64990;51.698;-0.292;2024-02-21T12:05:12;5.75;;;1.25;;
76208;SDS011;64990;51.698;-0.292;2024-02-21T12:07:38;7.35;;;0.85;;
76208;SDS011;64990;51.698;-0.292;2024-02-21T12:10:14;0.90;;;0.60;;
76208;SDS011;64990;51.698;-0.292;2024-02-21T12:12:40;1.20;;;0.73;;
76208;SDS011;64990;51.698;-0.292;2024-02-21T12:15:07;1.23;;;0.85;;
76208;SDS011;64990;51.698;-0.292;2024-02-21T12:17:33;2.55;;;1.58;;
76208;SDS011;64990;51.698;-0.292;2024-02-21T12:20:00;4.93;;;1.70;;
76208;SDS011;64990;51.698;-0.292;2024-02-21T12:22:26;1.00;;;0.60;;
76208;SDS011;64990;51.698;-0.292;2024-02-21T12:24:53;9.27;;;1.67;;
76208;SDS011;64990;51.698;-0.292;2024-02-21T12:27:19;5.15;;;1.33;;
76208;SDS011;64990;51.698;-0.292;2024-02-21T12:29:47;7.35;;;1.70;;
76208;SDS011;64990;51.698;-0.292;2024-02-21T12:32:13;2.75;;;0.88;;
76208;SDS011;64990;51.698;-0.292;2024-02-21T12:34:39;5.05;;;0.70;;
76208;SDS011;64990;51.698;-0.292;2024-02-21T12:37:05;0.95;;;0.90;;
76208;SDS011;64990;51.698;-0.292;2024-02-21T12:39:32;5.00;;;0.52;;
76208;SDS011;64990;51.698;-0.292;2024-02-21T12:41:58;4.50;;;1.23;;
76208;SDS011;64990;51.698;-0.292;2024-02-21T12:44:24;5.47;;;0.70;;
76208;SDS011;64990;51.698;-0.292;2024-02-21T12:46:50;5.40;;;0.98;;
76208;SDS011;64990;51.698;-0.292;2024-02-21T12:49:18;1.75;;;0.57;;
76208;SDS011;64990;51.698;-0.292;2024-02-21T12:51:44;1.65;;;0.77;;
76208;SDS011;64990;51.698;-0.292;2024-02-21T12:54:13;0.80;;;0.60;;
76208;SDS011;64990;51.698;-0.292;2024-02-21T12:56:40;0.77;;;0.50;;
76208;SDS011;64990;51.698;-0.292;2024-02-21T12:59:06;1.15;;;0.68;;
76208;SDS011;64990;51.698;-0.292;2024-02-21T13:01:34;5.97;;;0.70;;
76208;SDS011;64990;51.698;-0.292;2024-02-21T13:04:00;1.75;;;0.77;;
76208;SDS011;64990;51.698;-0.292;2024-02-21T13:06:26;2.47;;;0.93;;
76208;SDS011;64990;51.698;-0.292;2024-02-21T13:08:53;1.70;;;1.15;;
76208;SDS011;64990;51.698;-0.292;2024-02-21T13:11:19;0.60;;;0.60;;
76208;SDS011;64990;51.698;-0.292;2024-02-21T13:13:45;1.13;;;0.70;;
76208;SDS011;64990;51.698;-0.292;2024-02-21T13:16:11;0.60;;;0.60;;
76208;SDS011;64990;51.698;-0.292;2024-02-21T13:18:37;10.75;;;2.42;;
76208;SDS011;64990;51.698;-0.292;2024-02-21T13:21:04;2.13;;;0.85;;
76208;SDS011;64990;51.698;-0.292;2024-02-21T13:23:31;1.60;;;0.80;;
76208;SDS011;64990;51.698;-0.292;2024-02-21T13:25:57;19.42;;;1.58;;
76208;SDS011;64990;51.698;-0.292;2024-02-21T13:28:23;1.83;;;0.77;;
76208;SDS011;64990;51.698;-0.292;2024-02-21T13:30:49;2.88;;;0.93;;
76208;SDS011;64990;51.698;-0.292;2024-02-21T13:33:15;5.22;;;1.35;;
76208;SDS011;64990;51.698;-0.292;2024-02-21T13:35:41;2.40;;;0.70;;
76208;SDS011;64990;51.698;-0.292;2024-02-21T13:38:07;2.08;;;0.98;;
76208;SDS011;64990;51.698;-0.292;2024-02-21T13:40:35;7.13;;;1.20;;
76208;SDS011;64990;51.698;-0.292;2024-02-21T13:43:01;1.17;;;0.88;;
76208;SDS011;64990;51.698;-0.292;2024-02-21T13:45:27;1.90;;;1.35;;
76208;SDS011;64990;51.698;-0.292;2024-02-21T13:47:53;1.05;;;0.80;;
76208;SDS011;64990;51.698;-0.292;2024-02-21T13:50:19;4.78;;;1.55;;
76208;SDS011;64990;51.698;-0.292;2024-02-21T13:52:46;0.50;;;0.45;;
76208;SDS011;64990;51.698;-0.292;2024-02-21T13:55:12;2.85;;;1.60;;
76208;SDS011;64990;51.698;-0.292;2024-02-21T13:57:38;5.50;;;0.93;;
76208;SDS011;64990;51.698;-0.292;2024-02-21T14:00:04;5.20;;;0.80;;
76208;SDS011;64990;51.698;-0.292;2024-02-21T14:02:30;2.15;;;0.70;;
76208;SDS011;64990;51.698;-0.292;2024-02-21T14:04:56;1.63;;;0.75;;
76208;SDS011;64990;51.698;-0.292;2024-02-21T14:07:22;1.00;;;0.40;;
76208;SDS011;64990;51.698;-0.292;2024-02-21T14:09:48;4.57;;;0.95;;
76208;SDS011;64990;51.698;-0.292;2024-02-21T14:12:15;1.40;;;0.60;;
76208;SDS011;64990;51.698;-0.292;2024-02-21T14:14:43;5.20;;;1.60;;
76208;SDS011;64990;51.698;-0.292;2024-02-21T14:17:09;2.90;;;1.05;;
76208;SDS011;64990;51.698;-0.292;2024-02-21T14:19:35;6.40;;;0.90;;
76208;SDS011;64990;51.698;-0.292;2024-02-21T14:22:01;1.95;;;1.25;;
76208;SDS011;64990;51.698;-0.292;2024-02-21T14:24:27;0.63;;;0.60;;
76208;SDS011;64990;51.698;-0.292;2024-02-21T14:26:53;0.95;;;0.45;;
76208;SDS011;64990;51.698;-0.292;2024-02-21T14:29:20;2.05;;;0.90;;